.
WxDataArchive / Data Records for 2012-12-26
2012-12-25 December 2012 2012-12-27

Data Records for Wednesday, 26 December 2012

Time	Temp	Chill	HIndex	Humid	Dewpt	 Wind 	HiWind	WindDir	Rain 	Barom 
-----	----	-----	------	-----	-----	------	------	-------	-----	----- 
00:00	29.4	29.4	29.4	73	21.8	1	6	68	0.00	30.195 
00:05	29.5	29.5	29.5	73	21.9	2	6	90	0.00	30.195 
00:10	29.5	29.5	29.5	73	21.9	2	7	90	0.00	30.195 
00:15	29.5	29.5	29.5	73	21.9	1	6	68	0.00	30.183 
00:20	29.5	29.5	29.5	73	21.9	2	7	45	0.00	30.183 
00:25	29.5	29.5	29.5	74	22.3	2	6	90	0.00	30.183 
00:30	29.7	29.7	29.7	74	22.4	2	7	112	0.00	30.170 
00:35	29.7	29.7	29.7	73	22.1	2	6	90	0.00	30.170 
00:40	29.7	29.7	29.7	73	22.1	1	7	90	0.00	30.170 
00:45	29.7	29.7	29.7	73	22.1	3	7	112	0.00	30.159 
00:50	29.8	29.8	29.8	73	22.2	3	10	112	0.00	30.159 
00:55	29.8	29.8	29.8	73	22.2	3	9	112	0.00	30.159 
01:00	29.8	29.8	29.8	73	22.2	2	10	112	0.00	30.146 
01:05	29.8	29.8	29.8	73	22.2	2	9	45	0.00	30.146 
01:10	29.8	29.8	29.8	73	22.2	2	10	112	0.00	30.146 
01:15	30.0	30.0	30.0	73	22.4	3	7	90	0.00	30.136 
01:20	30.0	30.0	30.0	73	22.4	2	7	90	0.00	30.136 
01:25	30.0	30.0	30.0	73	22.4	2	7	90	0.00	30.136 
01:30	30.0	30.0	30.0	73	22.4	2	10	45	0.00	30.133 
01:35	30.1	30.1	30.1	73	22.5	2	10	90	0.00	30.133 
01:40	30.1	30.1	30.1	73	22.5	2	11	90	0.00	30.133 
01:45	30.1	30.1	30.1	73	22.5	3	11	112	0.00	30.134 
01:50	30.1	30.1	30.1	73	22.5	3	11	90	0.00	30.134 
01:55	30.1	30.1	30.1	73	22.5	2	8	90	0.00	30.134 
02:00	30.1	30.1	30.1	73	22.5	3	10	90	0.00	30.134 
02:05	30.3	26.1	30.3	73	22.7	4	13	112	0.00	30.134 
02:10	30.3	26.1	30.3	73	22.7	4	11	90	0.00	30.134 
02:15	30.3	30.3	30.3	73	22.7	3	10	90	0.00	30.130 
02:20	30.3	30.3	30.3	73	22.7	3	12	112	0.00	30.130 
02:25	30.3	30.3	30.3	73	22.7	3	10	90	0.00	30.130 
02:30	30.3	26.1	30.3	73	22.7	4	19	112	0.00	30.111 
02:35	30.3	30.3	30.3	73	22.7	3	9	90	0.00	30.111 
02:40	30.3	26.1	30.3	74	23.0	4	10	90	0.00	30.111 
02:45	30.3	26.1	30.3	73	22.7	4	13	90	0.00	30.087 
02:50	30.3	25.1	30.3	74	23.0	5	15	112	0.00	30.087 
02:55	30.3	30.3	30.3	74	23.0	3	12	90	0.00	30.087 
03:00	30.3	30.3	30.3	74	23.0	3	10	90	0.00	30.073 
03:05	30.3	26.1	30.3	74	23.0	4	17	90	0.00	30.073 
03:10	30.3	26.1	30.3	75	23.3	4	11	112	0.00	30.073 
03:15	30.3	30.3	30.3	74	23.0	3	18	112	0.00	30.065 
03:20	30.3	26.1	30.3	75	23.3	4	14	90	0.00	30.065 
03:25	30.3	25.1	30.3	75	23.3	5	13	112	0.00	30.065 
03:30	30.3	25.1	30.3	75	23.3	5	13	90	0.00	30.057 
03:35	30.3	25.1	30.3	75	23.3	5	11	112	0.00	30.057 
03:40	30.3	26.1	30.3	75	23.3	4	11	112	0.00	30.057 
03:45	30.3	25.1	30.3	75	23.3	5	17	90	0.00	30.045 
03:50	30.3	25.1	30.3	75	23.3	5	15	90	0.00	30.045 
03:55	30.3	26.1	30.3	76	23.7	4	10	90	0.00	30.045 
04:00	30.3	24.2	30.3	76	23.7	6	16	112	0.00	30.051 
04:05	30.1	25.9	30.1	76	23.5	4	11	90	0.00	30.051 
04:10	30.1	25.9	30.1	76	23.5	4	13	90	0.00	30.051 
04:15	30.1	25.9	30.1	76	23.5	4	16	90	0.00	30.042 
04:20	30.1	24.8	30.1	76	23.5	5	12	112	0.00	30.042 
04:25	30.1	25.9	30.1	76	23.5	4	12	112	0.00	30.042 
04:30	30.1	24.8	30.1	76	23.5	5	13	90	0.00	30.032 
04:35	30.1	24.8	30.1	76	23.5	5	15	90	0.00	30.032 
04:40	30.1	25.9	30.1	76	23.5	4	14	90	0.00	30.032 
04:45	30.1	25.9	30.1	76	23.5	4	11	90	0.00	30.034 
04:50	30.1	30.1	30.1	76	23.5	3	12	90	0.00	30.034 
04:55	30.1	30.1	30.1	76	23.5	3	10	112	0.00	30.034 
05:00	30.1	25.9	30.1	76	23.5	4	14	90	0.00	30.026 
05:05	30.1	24.8	30.1	75	23.2	5	16	22	0.00	30.026 
05:10	30.1	25.9	30.1	75	23.2	4	16	112	0.00	30.026 
05:15	30.1	25.9	30.1	75	23.2	4	13	90	0.00	30.005 
05:20	30.1	30.1	30.1	75	23.2	3	11	90	0.00	30.005 
05:25	30.1	30.1	30.1	75	23.2	3	12	90	0.00	30.005 
05:30	30.1	24.8	30.1	75	23.2	5	14	112	0.00	29.992 
05:35	30.1	30.1	30.1	75	23.2	3	13	45	0.00	29.992 
05:40	30.1	24.8	30.1	75	23.2	5	17	112	0.00	29.992 
05:45	30.1	25.9	30.1	75	23.2	4	12	90	0.00	29.986 
05:50	30.1	24.0	30.1	75	23.2	6	16	90	0.00	29.986 
05:55	30.1	25.9	30.1	75	23.2	4	12	112	0.00	29.986 
06:00	30.1	24.0	30.1	75	23.2	6	14	112	0.00	29.980 
06:05	30.1	24.8	30.1	75	23.2	5	14	112	0.00	29.980 
06:10	30.1	25.9	30.1	74	22.8	4	12	90	0.00	29.980 
06:15	30.0	24.7	30.0	74	22.7	5	14	112	0.00	29.980 
06:20	30.0	30.0	30.0	72	22.1	3	6	112	0.00	29.980 
06:25	30.0	25.8	30.0	74	22.7	4	13	90	0.00	29.980 
06:30	30.0	25.8	30.0	75	23.1	4	15	90	0.00	29.979 
06:35	30.0	23.8	30.0	74	22.7	6	15	90	0.00	29.979 
06:40	30.0	25.8	30.0	75	23.1	4	14	90	0.00	29.979 
06:45	30.0	24.7	30.0	74	22.7	5	17	112	0.00	29.979 
06:50	30.0	23.8	30.0	75	23.1	6	14	112	0.00	29.979 
06:55	30.0	25.8	30.0	75	23.1	4	11	90	0.00	29.979 
07:00	30.0	30.0	30.0	75	23.1	3	17	90	0.00	29.979 
07:05	30.0	25.8	30.0	75	23.1	4	12	68	0.00	29.979 
07:10	30.0	25.8	30.0	75	23.1	4	12	90	0.00	29.979 
07:15	30.0	24.7	30.0	75	23.1	5	16	112	0.00	29.965 
07:20	30.0	25.8	30.0	75	23.1	4	10	112	0.00	29.965 
07:25	30.0	24.7	30.0	76	23.4	5	18	112	0.00	29.965 
07:30	30.0	24.7	30.0	76	23.4	5	15	45	0.00	29.947 
07:35	30.0	24.7	30.0	76	23.4	5	14	90	0.00	29.947 
07:40	30.0	24.7	30.0	76	23.4	5	18	112	0.00	29.947 
07:45	30.0	24.7	30.0	76	23.4	5	13	112	0.00	29.935 
07:50	30.0	24.7	30.0	76	23.4	5	15	112	0.00	29.935 
07:55	30.0	23.8	30.0	76	23.4	6	15	90	0.00	29.935 
08:00	30.0	25.8	30.0	76	23.4	4	12	112	0.00	29.926 
08:05	30.0	25.8	30.0	76	23.4	4	15	90	0.00	29.926 
08:10	30.0	24.7	30.0	76	23.4	5	13	112	0.00	29.926 
08:15	30.0	30.0	30.0	76	23.4	3	10	90	0.00	29.902 
08:20	30.0	24.7	30.0	77	23.7	5	12	112	0.00	29.902 
08:25	29.8	24.5	29.8	76	23.2	5	15	90	0.00	29.902 
08:30	29.8	29.8	29.8	76	23.2	3	11	68	0.00	29.891 
08:35	29.8	29.8	29.8	77	23.5	3	7	90	0.00	29.891 
08:40	29.8	29.8	29.8	77	23.5	3	9	90	0.00	29.891 
08:45	29.7	25.4	29.7	77	23.4	4	12	45	0.00	29.885 
08:50	29.7	25.4	29.7	77	23.4	4	15	112	0.00	29.885 
08:55	29.7	25.4	29.7	77	23.4	4	11	45	0.00	29.885 
09:00	29.7	24.4	29.7	78	23.7	5	14	112	0.00	29.876 
09:05	29.5	24.1	29.5	78	23.5	5	12	112	0.00	29.876 
09:10	29.4	24.0	29.4	80	24.0	5	13	90	0.00	29.876 
09:15	29.4	24.0	29.4	81	24.3	5	16	112	0.00	29.876 
09:20	29.3	25.0	29.3	82	24.5	4	12	112	0.00	29.876 
09:25	29.1	29.1	29.1	83	24.6	3	6	90	0.00	29.876 
09:30	29.0	29.0	29.0	84	24.8	3	11	45	0.00	29.871 
09:35	28.8	28.8	28.8	85	24.9	3	10	45	0.00	29.871 
09:40	28.7	28.7	28.7	87	25.3	3	7	45	0.00	29.871 
09:45	28.5	28.5	28.5	88	25.4	3	9	68	0.00	29.862 
09:50	28.5	28.5	28.5	88	25.4	3	11	68	0.00	29.862 
09:55	28.4	28.4	28.4	89	25.6	2	9	90	0.00	29.862 
10:00	28.4	28.4	28.4	89	25.6	3	12	112	0.00	29.860 
10:05	28.4	28.4	28.4	90	25.8	3	10	22	0.00	29.860 
10:10	28.4	28.4	28.4	90	25.8	3	9	45	0.00	29.860 
10:15	28.4	28.4	28.4	90	25.8	3	7	22	0.00	29.859 
10:20	28.4	28.4	28.4	91	26.1	3	9	68	0.00	29.859 
10:25	28.4	28.4	28.4	91	26.1	3	6	68	0.00	29.859 
10:30	28.4	28.4	28.4	91	26.1	3	11	135	0.00	29.864 
10:35	28.4	28.4	28.4	92	26.4	3	7	45	0.00	29.864 
10:40	28.5	28.5	28.5	92	26.5	2	5	68	0.00	29.864 
10:45	28.5	28.5	28.5	92	26.5	3	9	90	0.00	29.866 
10:50	28.5	28.5	28.5	92	26.5	2	7	112	0.00	29.866 
10:55	28.5	28.5	28.5	92	26.5	2	7	68	0.00	29.866 
11:00	28.5	28.5	28.5	92	26.5	3	10	90	0.00	29.867 
11:05	28.5	28.5	28.5	92	26.5	3	11	68	0.00	29.867 
11:10	28.5	28.5	28.5	92	26.5	2	6	68	0.00	29.867 
11:15	28.5	28.5	28.5	92	26.5	2	5	90	0.00	29.858 
11:20	28.5	28.5	28.5	92	26.5	3	13	45	0.00	29.858 
11:25	28.5	28.5	28.5	92	26.5	3	8	22	0.00	29.858 
11:30	28.5	28.5	28.5	92	26.5	3	13	90	0.00	29.855 
11:35	28.5	28.5	28.5	92	26.5	2	11	22	0.00	29.855 
11:40	28.5	24.0	28.5	92	26.5	4	9	68	0.00	29.855 
11:45	28.5	28.5	28.5	93	26.7	3	10	68	0.00	29.848 
11:50	28.7	28.7	28.7	93	26.9	2	7	22	0.00	29.848 
11:55	28.7	28.7	28.7	93	26.9	2	7	68	0.00	29.848 
12:00	28.7	28.7	28.7	93	26.9	3	7	112	0.00	29.838 
12:05	28.7	28.7	28.7	93	26.9	2	6	112	0.00	29.838 
12:10	28.7	28.7	28.7	93	26.9	2	7	45	0.00	29.838 
12:15	28.7	28.7	28.7	93	26.9	3	7	90	0.00	29.831 
12:20	28.5	28.5	28.5	93	26.7	2	7	22	0.00	29.831 
12:25	28.5	28.5	28.5	93	26.7	3	7	0	0.00	29.831 
12:30	28.7	28.7	28.7	93	26.9	1	7	0	0.00	29.823 
12:35	28.5	28.5	28.5	93	26.7	3	7	135	0.00	29.823 
12:40	28.5	28.5	28.5	93	26.7	3	9	112	0.00	29.823 
12:45	28.7	28.7	28.7	93	26.9	2	10	90	0.00	29.814 
12:50	28.7	28.7	28.7	93	26.9	2	7	68	0.00	29.814 
12:55	28.7	28.7	28.7	93	26.9	2	9	68	0.00	29.814 
13:00	28.7	28.7	28.7	93	26.9	3	9	45	0.00	29.809 
13:05	28.7	28.7	28.7	93	26.9	2	6	338	0.00	29.809 
13:10	28.7	28.7	28.7	93	26.9	3	9	112	0.00	29.809 
13:15	28.8	28.8	28.8	93	27.0	2	9	112	0.00	29.802 
13:20	28.8	28.8	28.8	93	27.0	3	9	112	0.00	29.802 
13:25	28.8	28.8	28.8	92	26.8	3	10	0	0.00	29.802 
13:30	28.7	28.7	28.7	92	26.7	3	8	45	0.00	29.797 
13:35	28.7	28.7	28.7	92	26.7	2	7	22	0.00	29.797 
13:40	28.5	24.0	28.5	92	26.5	4	10	0	0.00	29.797 
13:45	28.7	28.7	28.7	92	26.7	2	7	0	0.00	29.794 
13:50	28.5	28.5	28.5	92	26.5	3	7	90	0.00	29.794 
13:55	28.5	28.5	28.5	92	26.5	2	6	338	0.00	29.794 
14:00	28.5	28.5	28.5	92	26.5	2	7	90	0.00	29.793 
14:05	28.7	28.7	28.7	92	26.7	2	9	68	0.00	29.793 
14:10	28.5	28.5	28.5	92	26.5	2	5	0	0.00	29.793 
14:15	28.5	28.5	28.5	92	26.5	2	5	0	0.00	29.792 
14:20	28.4	28.4	28.4	92	26.4	3	9	90	0.00	29.792 
14:25	28.4	28.4	28.4	92	26.4	3	10	90	0.00	29.792 
14:30	28.4	28.4	28.4	92	26.4	3	10	112	0.00	29.789 
14:35	28.4	28.4	28.4	92	26.4	3	9	338	0.00	29.789 
14:40	28.4	28.4	28.4	92	26.4	3	10	112	0.00	29.789 
14:45	28.4	28.4	28.4	92	26.4	2	6	338	0.00	29.787 
14:50	28.4	28.4	28.4	92	26.4	2	9	22	0.00	29.787 
14:55	28.4	23.9	28.4	92	26.4	4	12	0	0.00	29.787 
15:00	28.4	28.4	28.4	92	26.4	3	9	22	0.00	29.792 
15:05	28.4	28.4	28.4	92	26.4	2	7	338	0.00	29.792 
15:10	28.4	28.4	28.4	92	26.4	3	10	22	0.00	29.792 
15:15	28.4	28.4	28.4	92	26.4	2	7	0	0.00	29.792 
15:20	28.5	28.5	28.5	92	26.5	3	7	0	0.00	29.792 
15:25	28.5	28.5	28.5	92	26.5	2	6	68	0.00	29.792 
15:30	28.5	28.5	28.5	92	26.5	2	5	338	0.00	29.799 
15:35	28.5	28.5	28.5	92	26.5	2	6	0	0.00	29.799 
15:40	28.4	28.4	28.4	92	26.4	3	9	112	0.00	29.799 
15:45	28.4	28.4	28.4	92	26.4	3	6	338	0.00	29.807 
15:50	28.4	28.4	28.4	92	26.4	2	5	338	0.00	29.807 
15:55	28.4	28.4	28.4	92	26.4	3	7	22	0.00	29.807 
16:00	28.4	28.4	28.4	92	26.4	2	12	0	0.00	29.810 
16:05	28.4	28.4	28.4	92	26.4	2	7	112	0.00	29.810 
16:10	28.4	28.4	28.4	92	26.4	2	7	338	0.00	29.810 
16:15	28.4	28.4	28.4	92	26.4	2	6	0	0.00	29.813 
16:20	28.4	28.4	28.4	91	26.1	2	5	338	0.00	29.813 
16:25	28.4	28.4	28.4	91	26.1	3	9	338	0.00	29.813 
16:30	28.4	28.4	28.4	91	26.1	1	4	315	0.00	29.822 
16:35	28.4	28.4	28.4	91	26.1	1	5	22	0.00	29.822 
16:40	28.4	28.4	28.4	91	26.1	2	6	0	0.00	29.822 
16:45	28.4	28.4	28.4	91	26.1	1	4	22	0.00	29.825 
16:50	28.4	28.4	28.4	91	26.1	2	5	338	0.00	29.825 
16:55	28.4	28.4	28.4	90	25.8	2	11	338	0.00	29.825 
17:00	28.4	28.4	28.4	90	25.8	2	5	0	0.00	29.837 
17:05	28.2	28.2	28.2	90	25.7	2	5	0	0.00	29.837 
17:10	28.2	28.2	28.2	90	25.7	2	5	338	0.00	29.837 
17:15	28.2	28.2	28.2	90	25.7	2	5	338	0.00	29.840 
17:20	28.1	28.1	28.1	90	25.6	3	9	338	0.00	29.840 
17:25	28.1	28.1	28.1	90	25.6	1	7	315	0.00	29.840 
17:30	28.1	28.1	28.1	90	25.6	2	6	338	0.00	29.855 
17:35	28.1	28.1	28.1	90	25.6	1	4	0	0.00	29.855 
17:40	27.9	27.9	27.9	89	25.1	2	5	0	0.00	29.855 
17:45	27.9	27.9	27.9	89	25.1	2	6	0	0.00	29.855 
17:50	27.9	27.9	27.9	88	24.8	2	10	315	0.00	29.855 
17:55	27.9	27.9	27.9	88	24.8	2	6	338	0.00	29.855 
18:00	27.9	27.9	27.9	87	24.5	2	10	0	0.00	29.855 
18:05	27.8	27.8	27.8	86	24.2	3	6	338	0.00	29.855 
18:10	27.8	27.8	27.8	86	24.2	2	7	338	0.00	29.855 
18:15	27.8	27.8	27.8	86	24.2	2	7	338	0.00	29.862 
18:20	27.8	27.8	27.8	85	23.9	2	5	338	0.00	29.862 
18:25	27.8	27.8	27.8	85	23.9	3	8	338	0.00	29.862 
18:30	27.8	27.8	27.8	85	23.9	2	7	338	0.00	29.865 
18:35	27.6	27.6	27.6	85	23.7	2	5	0	0.00	29.865 
18:40	27.6	27.6	27.6	84	23.4	2	4	315	0.00	29.865 
18:45	27.6	27.6	27.6	84	23.4	2	6	315	0.00	29.872 
18:50	27.6	27.6	27.6	84	23.4	2	6	338	0.00	29.872 
18:55	27.6	27.6	27.6	84	23.4	2	5	0	0.00	29.872 
19:00	27.5	27.5	27.5	84	23.3	2	10	338	0.00	29.871 
19:05	27.5	27.5	27.5	83	23.0	3	6	338	0.00	29.871 
19:10	27.5	27.5	27.5	83	23.0	3	10	338	0.00	29.871 
19:15	27.3	27.3	27.3	83	22.8	3	12	338	0.00	29.880 
19:20	27.2	27.2	27.2	82	22.4	2	5	0	0.00	29.880 
19:25	27.2	27.2	27.2	82	22.4	2	5	0	0.00	29.880 
19:30	27.2	27.2	27.2	82	22.4	3	7	338	0.00	29.888 
19:35	27.2	27.2	27.2	82	22.4	1	4	0	0.00	29.888 
19:40	27.0	27.0	27.0	82	22.3	3	7	338	0.00	29.888 
19:45	27.0	27.0	27.0	82	22.3	3	9	338	0.00	29.891 
19:50	26.9	26.9	26.9	81	21.9	3	11	338	0.00	29.891 
19:55	26.7	26.7	26.7	81	21.7	3	6	338	0.00	29.891 
20:00	26.7	26.7	26.7	81	21.7	2	5	0	0.00	29.901 
20:05	26.6	26.6	26.6	81	21.6	3	7	0	0.00	29.901 
20:10	26.6	26.6	26.6	80	21.3	3	6	338	0.00	29.901 
20:15	26.6	26.6	26.6	80	21.3	3	9	338	0.00	29.901 
20:20	26.4	26.4	26.4	81	21.4	2	5	338	0.00	29.901 
20:25	26.4	26.4	26.4	81	21.4	2	6	338	0.00	29.901 
20:30	26.4	26.4	26.4	81	21.4	2	7	338	0.00	29.901 
20:35	26.3	26.3	26.3	81	21.3	2	5	0	0.00	29.901 
20:40	26.3	26.3	26.3	81	21.3	2	7	338	0.00	29.901 
20:45	26.3	26.3	26.3	81	21.3	2	6	338	0.00	29.902 
20:50	26.3	26.3	26.3	81	21.3	2	5	338	0.00	29.902 
20:55	26.3	26.3	26.3	81	21.3	3	6	338	0.00	29.902 
21:00	26.3	26.3	26.3	81	21.3	2	6	338	0.00	29.903 
21:05	26.1	26.1	26.1	81	21.1	2	6	338	0.00	29.903 
21:10	26.3	26.3	26.3	81	21.3	2	6	315	0.00	29.903 
21:15	26.3	26.3	26.3	81	21.3	2	6	0	0.00	29.907 
21:20	26.3	26.3	26.3	81	21.3	1	5	338	0.00	29.907 
21:25	26.3	26.3	26.3	81	21.3	1	4	0	0.00	29.907 
21:30	26.3	26.3	26.3	81	21.3	2	4	0	0.00	29.907 
21:35	26.4	26.4	26.4	81	21.4	2	5	338	0.00	29.907 
21:40	26.4	26.4	26.4	82	21.7	2	6	338	0.00	29.907 
21:45	26.4	26.4	26.4	82	21.7	2	6	0	0.00	29.916 
21:50	26.4	26.4	26.4	82	21.7	1	3	292	0.00	29.916 
21:55	26.6	26.6	26.6	82	21.9	1	4	292	0.00	29.916 
22:00	26.6	26.6	26.6	82	21.9	1	4	315	0.00	29.916 
22:05	26.7	26.7	26.7	82	22.0	1	5	315	0.00	29.916 
22:10	26.7	26.7	26.7	82	22.0	1	3	338	0.00	29.916 
22:15	26.9	26.9	26.9	82	22.2	1	5	315	0.00	29.920 
22:20	26.9	26.9	26.9	82	22.2	1	4	338	0.00	29.920 
22:25	27.0	27.0	27.0	82	22.3	1	4	338	0.00	29.920 
22:30	27.0	27.0	27.0	82	22.3	1	3	315	0.00	29.925 
22:35	27.0	27.0	27.0	82	22.3	1	4	0	0.00	29.925 
22:40	27.0	27.0	27.0	82	22.3	1	3	292	0.00	29.925 
22:45	27.0	27.0	27.0	82	22.3	1	4	292	0.00	29.933 
22:50	27.0	27.0	27.0	82	22.3	1	5	292	0.00	29.933 
22:55	27.0	27.0	27.0	82	22.3	1	4	270	0.00	29.933 
23:00	27.0	27.0	27.0	83	22.5	1	3	0	0.00	29.937 
23:05	27.0	27.0	27.0	83	22.5	1	3	338	0.00	29.937 
23:10	26.9	26.9	26.9	83	22.4	1	4	292	0.00	29.937 
23:15	26.9	26.9	26.9	83	22.4	1	3	292	0.00	29.945 
23:20	26.9	26.9	26.9	83	22.4	1	4	292	0.00	29.945 
23:25	26.9	26.9	26.9	83	22.4	2	6	315	0.00	29.945 
23:30	26.9	26.9	26.9	82	22.2	1	4	338	0.00	29.948 
23:35	26.9	26.9	26.9	82	22.2	1	7	270	0.00	29.948 
23:40	26.7	26.7	26.7	82	22.0	2	9	315	0.00	29.948 
23:45	26.7	26.7	26.7	82	22.0	2	5	270	0.00	29.944 
23:50	26.7	26.7	26.7	82	22.0	2	4	338	0.00	29.944 
23:55	26.7	26.7	26.7	82	22.0	1	4	338	0.00	29.944 

CoCoRaHS
IN-AL-39
A2 Web Hosting
Creative Commons License
GoDaddy
search engine by freefind advanced

loaded 2018-11-13 21:12:19 • last modified 2010-11-18 10:43:29
Privacy PolicyDisclaimer
• wx.awcolley.com is powered by PmWiki v.2002016 •
• all content (unless otherwise noted) © 2018 A W Colley